Time;durP1;ratioP1;P1;durP2;ratioP2;P2;SDS_P1;SDS_P2;PMS_P1;PMS_P2;Temp;Humidity;BMP_temperature;BMP_pressure;BME280_temperature;BME280_humidity;BME280_pressure;Samples;Min_cycle;Max_cycle;Signal;HPM_P1;HPM_P2
2023/05/28 00:00:50;;;;;;;8.68;5.15;;;15.50;77.10;;;;;;6185050;23;20420;-82
2023/05/28 00:03:20;;;;;;;8.70;4.93;;;15.50;77.10;;;;;;6156653;23;20757;-83
2023/05/28 00:05:46;;;;;;;10.02;5.07;;;15.50;77.20;;;;;;6159812;23;20035;-83
2023/05/28 00:08:13;;;;;;;9.30;4.82;;;15.50;77.10;;;;;;6184407;23;20544;-84
2023/05/28 00:10:39;;;;;;;8.32;4.72;;;15.50;77.10;;;;;;6183608;23;20001;-83
2023/05/28 00:13:05;;;;;;;8.85;5.40;;;15.50;77.10;;;;;;6154697;23;20005;-83
2023/05/28 00:15:30;;;;;;;9.32;5.40;;;15.50;77.20;;;;;;6153757;23;20047;-83
2023/05/28 00:17:56;;;;;;;8.10;5.13;;;15.40;77.40;;;;;;6182129;23;20009;-80
2023/05/28 00:20:21;;;;;;;10.05;5.25;;;15.50;77.10;;;;;;6157848;23;20040;-82
2023/05/28 00:22:47;;;;;;;8.80;4.85;;;15.50;77.10;;;;;;6159371;23;20527;-83
2023/05/28 00:25:13;;;;;;;7.95;5.15;;;15.50;77.10;;;;;;6163014;23;20005;-83
2023/05/28 00:27:38;;;;;;;9.10;5.43;;;15.50;77.10;;;;;;6158048;23;20395;-82
2023/05/28 00:30:05;;;;;;;10.07;5.13;;;15.50;77.20;;;;;;6185832;23;20005;-83
2023/05/28 00:32:30;;;;;;;9.98;5.50;;;15.50;77.10;;;;;;6186129;23;20013;-81
2023/05/28 00:34:56;;;;;;;9.10;5.20;;;15.50;77.10;;;;;;6158790;23;20005;-83
2023/05/28 00:37:21;;;;;;;10.52;5.60;;;15.60;77.20;;;;;;6160125;23;20032;-83
2023/05/28 00:39:47;;;;;;;9.65;5.68;;;15.60;77.20;;;;;;6185909;23;20471;-83
2023/05/28 00:42:13;;;;;;;10.65;5.22;;;15.60;77.30;;;;;;6161624;23;20016;-82
2023/05/28 00:44:39;;;;;;;9.23;5.28;;;15.60;77.20;;;;;;6159516;23;20009;-81
2023/05/28 00:47:05;;;;;;;8.40;4.85;;;15.60;77.20;;;;;;6161888;23;20013;-83
2023/05/28 00:49:32;;;;;;;9.73;4.70;;;15.60;77.20;;;;;;6169050;23;20079;-82
2023/05/28 00:51:59;;;;;;;9.93;5.22;;;15.60;77.10;;;;;;6194798;23;20170;-84
2023/05/28 00:54:25;;;;;;;9.43;5.32;;;15.60;77.00;;;;;;6167658;23;20013;-82
2023/05/28 00:56:57;;;;;;;8.85;5.18;;;15.60;77.50;;;;;;6193201;23;20012;-83
2023/05/28 00:59:24;;;;;;;9.15;5.13;;;15.60;76.90;;;;;;6190416;23;20046;-84
2023/05/28 01:01:50;;;;;;;11.80;5.28;;;15.60;77.00;;;;;;6160602;23;20047;-84
2023/05/28 01:04:16;;;;;;;9.45;5.20;;;15.60;77.00;;;;;;6186053;23;20009;-83
2023/05/28 01:06:43;;;;;;;10.40;6.00;;;15.50;76.90;;;;;;6159708;23;20016;-83
2023/05/28 01:09:09;;;;;;;10.43;5.40;;;15.50;76.90;;;;;;6158958;23;20012;-83
2023/05/28 01:11:36;;;;;;;8.82;5.25;;;15.50;77.00;;;;;;6163783;23;20001;-82
2023/05/28 01:14:02;;;;;;;10.07;5.90;;;15.50;77.00;;;;;;6198272;23;20001;-83
2023/05/28 01:16:28;;;;;;;13.10;5.82;;;15.50;77.00;;;;;;6191237;23;20467;-84
2023/05/28 01:18:55;;;;;;;13.40;5.60;;;15.50;77.10;;;;;;6159588;23;20474;-83
2023/05/28 01:21:22;;;;;;;12.60;5.90;;;15.50;77.10;;;;;;6185501;23;20009;-84
2023/05/28 01:23:49;;;;;;;12.75;5.72;;;15.50;77.10;;;;;;6157086;23;20019;-83
2023/05/28 01:26:16;;;;;;;10.82;5.65;;;15.50;77.10;;;;;;6183074;23;20005;-82
2023/05/28 01:28:45;;;;;;;11.18;5.68;;;15.50;77.10;;;;;;6162665;23;20009;-83
2023/05/28 01:31:11;;;;;;;9.77;5.50;;;15.40;77.10;;;;;;6161633;23;20060;-83
2023/05/28 01:33:38;;;;;;;12.63;6.15;;;15.50;77.20;;;;;;6187403;23;20450;-81
2023/05/28 01:36:07;;;;;;;11.25;5.65;;;15.40;77.10;;;;;;6188494;23;20023;-84
2023/05/28 01:38:35;;;;;;;11.13;5.57;;;15.40;77.10;;;;;;6164835;23;20035;-84
2023/05/28 01:41:02;;;;;;;11.27;6.43;;;15.50;77.20;;;;;;6189126;23;20001;-82
2023/05/28 01:43:28;;;;;;;10.02;5.60;;;15.50;77.20;;;;;;6189130;23;20001;-83
2023/05/28 01:45:54;;;;;;;10.00;5.60;;;15.50;77.20;;;;;;6161619;23;20005;-84
2023/05/28 01:48:20;;;;;;;9.43;5.35;;;15.40;77.10;;;;;;6161789;23;20016;-84
2023/05/28 01:50:45;;;;;;;10.07;5.75;;;15.40;77.10;;;;;;6189938;23;19997;-83
2023/05/28 01:53:11;;;;;;;11.48;6.00;;;15.40;77.10;;;;;;6189469;23;19997;-83
2023/05/28 01:55:37;;;;;;;13.40;5.85;;;15.40;77.10;;;;;;6187476;23;19998;-84
2023/05/28 01:58:03;;;;;;;8.93;5.18;;;15.40;76.90;;;;;;6159201;23;20087;-82
2023/05/28 02:00:29;;;;;;;10.38;5.35;;;15.40;77.00;;;;;;6158443;23;20399;-82
2023/05/28 02:02:54;;;;;;;10.48;5.78;;;15.40;77.00;;;;;;6184168;23;20005;-83
2023/05/28 02:05:20;;;;;;;9.13;5.18;;;15.40;77.00;;;;;;6158800;23;20005;-81
2023/05/28 02:07:45;;;;;;;9.73;5.32;;;15.40;77.10;;;;;;6158144;23;20041;-84
2023/05/28 02:10:11;;;;;;;8.73;5.43;;;15.40;77.00;;;;;;6157898;23;20001;-83
2023/05/28 02:12:37;;;;;;;8.45;5.38;;;15.40;77.10;;;;;;6184935;23;20005;-83
2023/05/28 02:15:02;;;;;;;9.38;5.90;;;15.50;77.10;;;;;;6156612;23;20436;-81
2023/05/28 02:17:28;;;;;;;9.40;5.55;;;15.40;76.90;;;;;;6156280;23;20009;-83
2023/05/28 02:19:53;;;;;;;10.30;5.63;;;15.40;76.90;;;;;;6155955;23;20032;-82
2023/05/28 02:22:19;;;;;;;9.55;5.20;;;15.40;77.00;;;;;;6180565;23;20001;-82
2023/05/28 02:24:46;;;;;;;10.10;5.40;;;15.40;77.00;;;;;;6158309;23;20013;-83
2023/05/28 02:27:12;;;;;;;8.63;5.25;;;15.40;77.10;;;;;;6181473;23;20005;-82
2023/05/28 02:29:37;;;;;;;9.65;5.55;;;15.40;76.90;;;;;;6183616;23;20073;-83
2023/05/28 02:32:03;;;;;;;8.88;5.03;;;15.50;77.00;;;;;;6185487;23;20012;-83
2023/05/28 02:34:29;;;;;;;10.27;5.45;;;15.50;77.10;;;;;;6159441;23;20012;-84
2023/05/28 02:36:55;;;;;;;8.93;5.15;;;15.50;77.10;;;;;;6186818;23;20367;-83
2023/05/28 02:39:21;;;;;;;8.20;5.15;;;15.50;77.00;;;;;;6159498;23;20132;-83
2023/05/28 02:41:47;;;;;;;10.20;4.95;;;15.50;76.90;;;;;;6160082;23;20043;-83
2023/05/28 02:44:13;;;;;;;9.98;5.53;;;15.50;76.80;;;;;;6162653;23;20001;-83
2023/05/28 02:46:38;;;;;;;8.98;5.50;;;15.60;76.80;;;;;;6157388;23;20076;-83
2023/05/28 02:49:04;;;;;;;8.77;5.30;;;15.60;76.80;;;;;;6180423;23;20008;-83
2023/05/28 02:51:30;;;;;;;10.63;5.75;;;15.60;76.90;;;;;;6183786;23;20618;-82
2023/05/28 02:53:55;;;;;;;9.80;5.60;;;15.50;76.80;;;;;;6157400;23;20044;-83
2023/05/28 02:56:21;;;;;;;8.57;5.40;;;15.50;76.80;;;;;;6182624;23;20016;-82
2023/05/28 02:58:47;;;;;;;10.80;5.70;;;15.50;76.70;;;;;;6153778;23;20343;-82
2023/05/28 03:01:12;;;;;;;10.52;5.38;;;15.50;76.70;;;;;;6153553;23;20005;-84
2023/05/28 03:03:38;;;;;;;8.80;5.30;;;15.50;76.60;;;;;;6184447;23;20005;-82
2023/05/28 03:06:04;;;;;;;8.98;5.45;;;15.40;76.70;;;;;;6158097;23;20016;-82
2023/05/28 03:08:29;;;;;;;8.95;5.40;;;15.40;76.80;;;;;;6184760;23;20009;-83
2023/05/28 03:10:55;;;;;;;9.75;5.47;;;15.40;76.80;;;;;;6185920;23;20009;-83
2023/05/28 03:13:20;;;;;;;9.25;5.28;;;15.40;76.70;;;;;;6158487;23;19997;-82
2023/05/28 03:15:45;;;;;;;9.77;5.35;;;15.40;76.80;;;;;;6158387;23;20004;-82
2023/05/28 03:18:11;;;;;;;8.60;5.50;;;15.40;76.70;;;;;;6184054;23;20008;-82
2023/05/28 03:20:36;;;;;;;9.23;5.30;;;15.40;76.70;;;;;;6153670;23;20396;-81
2023/05/28 03:23:02;;;;;;;9.38;5.72;;;15.40;76.70;;;;;;6179266;23;20013;-80
2023/05/28 03:25:27;;;;;;;8.65;5.38;;;15.30;76.70;;;;;;6180760;23;20107;-82
2023/05/28 03:27:53;;;;;;;9.75;5.75;;;15.40;76.70;;;;;;6154980;23;20462;-82
2023/05/28 03:30:19;;;;;;;8.45;5.00;;;15.40;76.70;;;;;;6153794;23;20045;-82
2023/05/28 03:32:44;;;;;;;8.77;5.47;;;15.40;76.70;;;;;;6181188;23;20024;-83
2023/05/28 03:35:10;;;;;;;8.50;5.30;;;15.40;76.70;;;;;;6157543;23;20065;-82
2023/05/28 03:37:35;;;;;;;10.02;5.65;;;15.40;76.60;;;;;;6157155;23;20093;-84
2023/05/28 03:40:04;;;;;;;9.65;5.30;;;15.40;76.70;;;;;;6181596;23;20020;-81
2023/05/28 03:42:29;;;;;;;9.90;5.20;;;15.40;76.60;;;;;;6158309;23;20016;-84
2023/05/28 03:44:55;;;;;;;10.07;5.82;;;15.40;76.60;;;;;;6184083;23;20017;-83
2023/05/28 03:47:21;;;;;;;10.65;5.90;;;15.40;76.50;;;;;;6157119;23;20001;-82
2023/05/28 03:49:47;;;;;;;9.80;5.63;;;15.40;76.50;;;;;;6158253;23;20001;-83
2023/05/28 03:52:12;;;;;;;10.00;5.50;;;15.40;76.50;;;;;;6184005;23;20005;-82
2023/05/28 03:54:38;;;;;;;9.10;5.45;;;15.40;76.40;;;;;;6157603;23;20001;-83
2023/05/28 03:57:03;;;;;;;10.70;6.10;;;15.40;76.40;;;;;;6157384;23;20005;-82
2023/05/28 03:59:29;;;;;;;9.60;5.35;;;15.40;76.20;;;;;;6158246;23;20005;-81
2023/05/28 04:01:54;;;;;;;8.27;5.07;;;15.40;76.20;;;;;;6159890;23;20024;-82
2023/05/28 04:04:20;;;;;;;10.10;5.38;;;15.40;76.30;;;;;;6160275;23;20014;-82
2023/05/28 04:06:45;;;;;;;10.00;5.65;;;15.40;76.40;;;;;;6160297;23;20005;-83
2023/05/28 04:09:11;;;;;;;8.15;5.20;;;15.40;76.40;;;;;;6161815;23;20005;-83
2023/05/28 04:11:38;;;;;;;10.20;5.78;;;15.40;76.30;;;;;;6154031;23;20340;-82
2023/05/28 04:14:04;;;;;;;9.23;5.53;;;15.40;76.30;;;;;;6179673;23;20023;-81
2023/05/28 04:16:30;;;;;;;8.60;5.55;;;15.40;76.50;;;;;;6152385;23;20036;-82
2023/05/28 04:18:56;;;;;;;9.75;5.78;;;15.40;76.60;;;;;;6152940;23;20009;-80
2023/05/28 04:21:24;;;;;;;9.27;5.45;;;15.40;76.50;;;;;;6153696;23;20009;-82
2023/05/28 04:23:49;;;;;;;10.52;6.00;;;15.40;76.50;;;;;;6155060;23;20336;-82
2023/05/28 04:26:16;;;;;;;9.77;5.82;;;15.40;76.50;;;;;;6155134;23;20013;-82
2023/05/28 04:28:41;;;;;;;10.00;5.43;;;15.40;76.50;;;;;;6156988;23;20016;-81
2023/05/28 04:31:07;;;;;;;9.88;5.60;;;15.50;76.50;;;;;;6156065;23;20036;-82
2023/05/28 04:33:32;;;;;;;9.65;5.40;;;15.50;76.40;;;;;;6182662;23;20467;-82
2023/05/28 04:35:59;;;;;;;9.73;5.47;;;15.50;76.40;;;;;;6152980;23;20016;-82
2023/05/28 04:38:28;;;;;;;9.43;5.70;;;15.50;76.40;;;;;;6178971;23;20087;-81
2023/05/28 04:40:54;;;;;;;10.32;5.82;;;15.50;76.40;;;;;;6154719;23;20009;-81
2023/05/28 04:43:21;;;;;;;9.85;5.72;;;15.50;76.40;;;;;;6181751;23;20383;-83
2023/05/28 04:45:47;;;;;;;10.38;5.97;;;15.50;76.40;;;;;;6154916;23;20342;-81
2023/05/28 04:48:12;;;;;;;9.95;5.40;;;15.50;76.40;;;;;;6156412;23;20031;-83
2023/05/28 04:50:39;;;;;;;10.35;5.88;;;15.50;76.40;;;;;;6155646;23;20005;-83
2023/05/28 04:53:04;;;;;;;8.95;5.45;;;15.50;76.50;;;;;;6158545;23;20001;-82
2023/05/28 04:55:30;;;;;;;10.45;5.53;;;15.50;76.50;;;;;;6158761;23;20036;-83
2023/05/28 04:57:55;;;;;;;8.95;5.65;;;15.50;76.40;;;;;;6183428;23;20013;-83
2023/05/28 05:00:21;;;;;;;9.75;5.78;;;15.50;76.50;;;;;;6155710;23;20012;-82
2023/05/28 05:02:47;;;;;;;9.85;5.75;;;15.40;76.50;;;;;;6153208;23;20009;-82
2023/05/28 05:05:14;;;;;;;10.57;5.80;;;15.40;76.50;;;;;;6154984;23;20448;-82
2023/05/28 05:07:39;;;;;;;11.63;5.90;;;15.40;76.50;;;;;;6180302;23;20005;-82
2023/05/28 05:10:09;;;;;;;9.88;5.28;;;15.50;76.60;;;;;;6179912;23;20013;-82
2023/05/28 05:12:35;;;;;;;10.95;6.13;;;15.40;76.60;;;;;;6181105;23;20012;-82
2023/05/28 05:15:01;;;;;;;9.73;5.57;;;15.40;76.60;;;;;;6179470;23;20004;-82
2023/05/28 05:17:27;;;;;;;10.50;5.93;;;15.40;76.60;;;;;;6152731;23;20032;-82
2023/05/28 05:19:53;;;;;;;11.07;6.20;;;15.50;76.70;;;;;;6180914;23;20005;-84
2023/05/28 05:22:18;;;;;;;10.73;6.00;;;15.40;76.70;;;;;;6186449;23;20012;-83
2023/05/28 05:24:48;;;;;;;10.30;5.95;;;15.40;76.70;;;;;;6161362;23;20424;-83
2023/05/28 05:27:13;;;;;;;10.65;5.95;;;15.40;76.80;;;;;;6187277;23;20009;-81
2023/05/28 05:29:39;;;;;;;10.73;5.82;;;15.40;76.80;;;;;;6187123;23;20469;-83
2023/05/28 05:32:05;;;;;;;9.65;6.00;;;15.40;76.80;;;;;;6159808;23;20015;-84
2023/05/28 05:34:30;;;;;;;9.93;5.50;;;15.40;76.80;;;;;;6158432;23;20239;-84
2023/05/28 05:36:56;;;;;;;10.85;6.45;;;15.40;76.80;;;;;;6186894;23;20012;-84
2023/05/28 05:39:22;;;;;;;11.95;5.75;;;15.40;76.80;;;;;;6159812;23;20016;-84
2023/05/28 05:41:47;;;;;;;10.32;5.70;;;15.50;76.90;;;;;;6158989;23;20343;-82
2023/05/28 05:44:13;;;;;;;9.70;5.57;;;15.40;76.80;;;;;;6159027;23;20029;-81
2023/05/28 05:46:38;;;;;;;9.65;5.18;;;15.50;76.90;;;;;;6185829;23;20447;-82
2023/05/28 05:49:04;;;;;;;10.35;5.50;;;15.50;76.90;;;;;;6191116;23;20100;-84
2023/05/28 05:51:32;;;;;;;10.10;5.82;;;15.50;76.90;;;;;;6162337;23;20009;-83
2023/05/28 05:53:57;;;;;;;10.68;5.47;;;15.50;77.00;;;;;;6157200;23;20056;-83
2023/05/28 05:56:23;;;;;;;10.57;5.40;;;15.50;77.00;;;;;;6166373;23;20001;-82
2023/05/28 05:58:48;;;;;;;8.82;5.45;;;15.50;77.00;;;;;;6163825;23;20020;-81
2023/05/28 06:01:17;;;;;;;10.85;6.45;;;15.50;77.00;;;;;;6162978;23;19997;-82
2023/05/28 06:03:43;;;;;;;9.25;5.53;;;15.50;77.00;;;;;;6165118;23;20519;-82
2023/05/28 06:06:09;;;;;;;9.88;5.82;;;15.60;77.10;;;;;;6165922;23;20004;-84
2023/05/28 06:08:35;;;;;;;11.07;6.03;;;15.50;77.00;;;;;;6191108;23;20484;-84
2023/05/28 06:11:01;;;;;;;10.52;5.95;;;15.50;77.00;;;;;;6165999;23;20001;-85
2023/05/28 06:13:26;;;;;;;10.15;5.28;;;15.50;77.00;;;;;;6166740;23;20523;-84
2023/05/28 06:15:52;;;;;;;10.80;5.63;;;15.60;77.00;;;;;;6170313;23;20016;-84
2023/05/28 06:18:17;;;;;;;11.02;5.85;;;15.60;76.90;;;;;;6167143;23;20008;-83
2023/05/28 06:20:43;;;;;;;10.45;5.95;;;15.60;76.90;;;;;;6192999;23;20008;-84
2023/05/28 06:23:09;;;;;;;11.73;5.80;;;16.00;77.10;;;;;;6165625;23;20320;-81
2023/05/28 06:25:35;;;;;;;9.73;5.75;;;15.70;76.90;;;;;;6166397;23;20218;-82
2023/05/28 06:28:01;;;;;;;9.38;5.43;;;15.80;77.00;;;;;;6166245;23;20015;-83
2023/05/28 06:30:26;;;;;;;10.43;5.65;;;15.70;76.80;;;;;;6166138;23;20005;-83
2023/05/28 06:32:52;;;;;;;10.85;6.22;;;17.40;77.80;;;;;;6191149;23;20023;-81
2023/05/28 06:35:18;;;;;;;9.27;5.35;;;15.70;76.80;;;;;;6189673;23;20064;-82
2023/05/28 06:37:43;;;;;;;9.73;5.80;;;15.70;76.90;;;;;;6154686;23;20251;-80
2023/05/28 06:40:10;;;;;;;10.13;5.20;;;15.80;76.90;;;;;;6189642;23;20015;-84
2023/05/28 06:42:36;;;;;;;12.60;5.90;;;15.80;76.80;;;;;;6187614;23;20013;-81
2023/05/28 06:45:02;;;;;;;8.95;5.38;;;15.80;76.80;;;;;;6161160;23;20035;-80
2023/05/28 06:47:27;;;;;;;10.23;5.40;;;15.80;76.70;;;;;;6189831;23;20444;-83
2023/05/28 06:49:53;;;;;;;11.07;5.60;;;15.90;76.80;;;;;;6164558;23;20009;-82
2023/05/28 06:52:19;;;;;;;11.27;5.60;;;15.90;76.60;;;;;;6162341;23;20127;-81
2023/05/28 06:54:45;;;;;;;16.27;5.97;;;15.90;76.60;;;;;;6165844;23;20036;-81
2023/05/28 06:57:10;;;;;;;15.50;5.95;;;15.90;76.60;;;;;;6165444;23;20031;-79
2023/05/28 06:59:36;;;;;;;20.10;5.95;;;16.00;76.80;;;;;;6165417;23;20005;-83
2023/05/28 07:02:01;;;;;;;13.60;5.78;;;15.90;76.70;;;;;;6163720;23;20317;-82
2023/05/28 07:04:27;;;;;;;12.00;5.43;;;15.90;76.70;;;;;;6161807;23;20009;-80
2023/05/28 07:06:53;;;;;;;13.95;6.10;;;15.90;76.80;;;;;;6164127;23;20012;-81
2023/05/28 07:09:19;;;;;;;13.30;5.60;;;15.90;76.80;;;;;;6164164;23;20005;-79
2023/05/28 07:11:44;;;;;;;14.57;5.40;;;15.90;76.80;;;;;;6160820;23;20207;-84
2023/05/28 07:14:10;;;;;;;12.93;5.72;;;15.90;76.80;;;;;;6163269;23;20197;-84
2023/05/28 07:16:35;;;;;;;14.15;5.78;;;15.90;76.80;;;;;;6161782;23;20096;-83
2023/05/28 07:19:01;;;;;;;10.93;5.57;;;15.90;76.80;;;;;;6163110;23;20005;-82
2023/05/28 07:21:26;;;;;;;13.57;5.68;;;16.00;76.90;;;;;;6159898;23;20005;-80
2023/05/28 07:23:52;;;;;;;11.68;5.22;;;16.60;77.20;;;;;;6158255;23;20009;-82
2023/05/28 07:26:17;;;;;;;15.45;5.90;;;16.00;76.90;;;;;;6160080;23;20067;-81
2023/05/28 07:28:43;;;;;;;14.07;5.85;;;16.00;76.90;;;;;;6159544;23;20051;-83
2023/05/28 07:31:08;;;;;;;16.30;6.20;;;16.00;76.90;;;;;;6163867;23;20012;-81
2023/05/28 07:33:35;;;;;;;14.75;5.88;;;16.00;76.80;;;;;;6163605;23;20009;-78
2023/05/28 07:36:00;;;;;;;12.27;5.20;;;16.00;76.80;;;;;;6162248;23;20001;-82
2023/05/28 07:38:26;;;;;;;9.75;5.20;;;16.00;76.80;;;;;;6162711;23;20095;-79
2023/05/28 07:40:51;;;;;;;13.30;5.90;;;16.10;76.80;;;;;;6163050;23;20380;-83
2023/05/28 07:43:17;;;;;;;14.75;5.50;;;16.10;76.90;;;;;;6165651;23;20082;-83
2023/05/28 07:45:42;;;;;;;14.00;5.60;;;16.10;76.90;;;;;;6166392;23;20009;-84
2023/05/28 07:48:08;;;;;;;10.95;5.47;;;16.10;76.80;;;;;;6166602;23;20012;-82
2023/05/28 07:50:34;;;;;;;10.88;5.20;;;16.10;76.70;;;;;;6166611;23;20520;-80
2023/05/28 07:53:01;;;;;;;14.07;5.40;;;16.10;76.70;;;;;;6165812;23;20008;-83
2023/05/28 07:55:27;;;;;;;12.00;5.35;;;16.20;76.70;;;;;;6167716;23;20088;-84
2023/05/28 07:57:52;;;;;;;11.35;5.15;;;16.20;76.70;;;;;;6170985;23;20005;-81
2023/05/28 08:00:18;;;;;;;10.38;5.05;;;16.20;76.70;;;;;;6175927;23;20036;-81
2023/05/28 08:02:44;;;;;;;11.50;5.22;;;16.20;76.70;;;;;;6173042;23;20004;-81
2023/05/28 08:05:10;;;;;;;8.77;4.53;;;16.20;76.70;;;;;;6171977;23;20019;-82
2023/05/28 08:07:35;;;;;;;9.70;4.45;;;16.20;76.70;;;;;;6202516;23;20009;-82
2023/05/28 08:10:01;;;;;;;11.45;4.88;;;16.20;76.60;;;;;;6171045;23;20005;-82
2023/05/28 08:12:27;;;;;;;10.32;4.68;;;16.30;76.60;;;;;;6166753;23;20021;-83
2023/05/28 08:14:52;;;;;;;10.50;4.95;;;16.30;76.50;;;;;;6197947;23;20000;-81
2023/05/28 08:17:21;;;;;;;10.43;4.72;;;16.30;76.50;;;;;;6187918;23;20005;-80
2023/05/28 08:19:47;;;;;;;8.65;4.65;;;16.30;76.40;;;;;;6161461;23;20047;-82
2023/05/28 08:22:12;;;;;;;10.07;4.78;;;16.40;76.40;;;;;;6186851;23;20005;-80
2023/05/28 08:24:38;;;;;;;12.43;4.80;;;16.40;76.40;;;;;;6160394;23;20008;-82
2023/05/28 08:27:03;;;;;;;9.95;4.70;;;16.40;76.30;;;;;;6159181;23;20008;-76
2023/05/28 08:29:29;;;;;;;12.57;4.70;;;16.40;76.30;;;;;;6161160;23;20001;-78
2023/05/28 08:31:54;;;;;;;9.20;4.30;;;16.50;76.20;;;;;;6161932;23;20008;-80
2023/05/28 08:34:20;;;;;;;9.23;4.18;;;16.50;76.10;;;;;;6162328;23;20085;-80
2023/05/28 08:36:46;;;;;;;10.73;4.40;;;16.50;76.00;;;;;;6160877;23;20005;-79
2023/05/28 08:39:12;;;;;;;8.57;4.30;;;16.60;75.90;;;;;;6162546;23;20093;-79
2023/05/28 08:41:38;;;;;;;10.13;4.25;;;16.60;75.90;;;;;;6161462;23;20009;-81
2023/05/28 08:44:03;;;;;;;10.98;4.30;;;16.60;75.80;;;;;;6161031;23;20044;-80
2023/05/28 08:46:30;;;;;;;11.18;4.53;;;16.70;75.80;;;;;;6161747;23;20438;-83
2023/05/28 08:48:57;;;;;;;10.73;4.65;;;16.70;75.80;;;;;;6187735;23;20004;-80
2023/05/28 08:51:24;;;;;;;8.63;3.92;;;16.70;75.80;;;;;;6159860;23;20087;-82
2023/05/28 08:53:52;;;;;;;10.00;4.35;;;16.70;75.80;;;;;;6159572;23;20001;-81
2023/05/28 08:56:18;;;;;;;9.73;3.60;;;16.70;75.90;;;;;;6159978;23;20028;-84
2023/05/28 08:58:44;;;;;;;11.85;4.00;;;16.70;76.00;;;;;;6186747;23;20073;-81
2023/05/28 09:01:10;;;;;;;8.10;3.63;;;16.60;76.10;;;;;;6161300;23;20025;-84
2023/05/28 09:03:41;;;;;;;10.90;3.72;;;16.60;76.10;;;;;;6189066;23;19997;-82
2023/05/28 09:06:08;;;;;;;11.40;4.50;;;16.60;76.20;;;;;;6189253;23;19997;-83
2023/05/28 09:08:34;;;;;;;11.60;3.92;;;16.60;76.30;;;;;;6161447;23;20054;-83
2023/05/28 09:11:13;;;;;;;7.47;4.03;;;16.60;76.80;;;;;;6161978;23;20005;-83
2023/05/28 09:13:43;;;;;;;8.82;3.70;;;16.60;76.30;;;;;;6162336;23;20001;-83
2023/05/28 09:16:08;;;;;;;11.25;4.03;;;16.60;76.30;;;;;;6188192;23;20004;-83
2023/05/28 09:18:35;;;;;;;8.85;3.58;;;16.60;76.30;;;;;;6187403;23;20320;-81
2023/05/28 09:21:01;;;;;;;9.18;3.63;;;16.60;76.30;;;;;;6161703;23;20087;-83
2023/05/28 09:23:28;;;;;;;11.80;4.53;;;16.70;76.40;;;;;;6161229;23;20479;-84
2023/05/28 09:25:56;;;;;;;11.65;4.13;;;16.70;76.30;;;;;;6160329;23;20080;-82
2023/05/28 09:28:27;;;;;;;8.82;3.63;;;16.70;76.30;;;;;;6158908;23;20005;-82
2023/05/28 09:30:53;;;;;;;9.03;3.67;;;16.70;76.30;;;;;;6161653;23;20001;-83
2023/05/28 09:33:19;;;;;;;11.90;3.60;;;16.70;76.20;;;;;;6160887;23;20423;-85
2023/05/28 09:35:56;;;;;;;6.85;3.40;;;16.70;76.10;;;;;;6160968;23;20001;-84
2023/05/28 09:38:24;;;;;;;8.15;3.28;;;16.70;76.20;;;;;;6160825;23;20012;-83
2023/05/28 09:40:49;;;;;;;8.00;3.53;;;16.70;76.20;;;;;;6161394;23;20004;-82
2023/05/28 09:43:15;;;;;;;7.05;3.47;;;16.70;76.20;;;;;;6186400;23;20016;-82
2023/05/28 09:45:40;;;;;;;8.25;3.25;;;16.60;76.20;;;;;;6185959;23;20011;-83
2023/05/28 09:48:06;;;;;;;8.02;3.40;;;16.60;76.40;;;;;;6159224;23;20001;-80
2023/05/28 09:50:31;;;;;;;6.32;3.30;;;16.60;76.50;;;;;;6159637;23;20001;-83
2023/05/28 09:52:58;;;;;;;7.50;3.15;;;16.60;76.70;;;;;;6159231;23;20001;-80
2023/05/28 09:55:28;;;;;;;7.55;3.65;;;16.50;76.60;;;;;;6160258;23;20001;-84
2023/05/28 09:57:53;;;;;;;6.65;3.03;;;16.50;76.70;;;;;;6162656;23;20005;-83
2023/05/28 10:00:23;;;;;;;8.68;3.38;;;16.60;76.80;;;;;;6188268;23;20420;-84
2023/05/28 10:03:11;;;;;;;8.43;3.45;;;16.60;76.70;;;;;;6187823;23;20036;-83
2023/05/28 10:05:39;;;;;;;7.85;3.47;;;16.60;76.60;;;;;;6184924;23;20019;-81
2023/05/28 10:08:05;;;;;;;7.22;2.78;;;16.70;76.50;;;;;;6187680;23;19997;-84
2023/05/28 10:10:31;;;;;;;8.48;3.13;;;16.70;76.40;;;;;;6186780;23;20080;-80
2023/05/28 10:12:58;;;;;;;6.75;3.22;;;16.70;76.30;;;;;;6185378;23;20052;-84
2023/05/28 10:15:25;;;;;;;7.13;2.97;;;16.70;76.30;;;;;;6161521;23;20004;-83
2023/05/28 10:17:51;;;;;;;7.50;3.30;;;16.80;76.30;;;;;;6161046;23;20410;-84
2023/05/28 10:20:18;;;;;;;7.78;3.20;;;16.80;76.20;;;;;;6187515;23;20001;-82
2023/05/28 10:22:44;;;;;;;8.35;3.13;;;16.80;76.10;;;;;;6160939;23;20005;-84
2023/05/28 10:25:10;;;;;;;7.35;3.08;;;16.90;76.00;;;;;;6160781;23;20032;-83
2023/05/28 10:27:42;;;;;;;6.90;3.00;;;16.90;75.90;;;;;;6186644;23;20009;-84
2023/05/28 10:30:09;;;;;;;8.50;3.58;;;16.90;75.80;;;;;;6160587;23;20352;-83
2023/05/28 10:32:44;;;;;;;9.13;3.90;;;17.00;75.70;;;;;;6148133;23;20020;-82
2023/05/28 10:35:11;;;;;;;5.78;2.65;;;17.00;75.70;;;;;;6131008;23;20040;-83
2023/05/28 10:37:37;;;;;;;7.18;2.80;;;17.00;75.60;;;;;;6130659;23;20005;-81
2023/05/28 10:40:06;;;;;;;6.68;3.10;;;17.00;76.10;;;;;;6129343;23;20005;-83
2023/05/28 10:42:39;;;;;;;7.70;3.00;;;17.00;75.50;;;;;;6130386;23;20012;-80
2023/05/28 10:45:12;;;;;;;8.65;3.10;;;17.00;75.60;;;;;;6156009;23;20440;-83
2023/05/28 10:47:51;;;;;;;6.63;2.97;;;17.00;75.50;;;;;;6155341;23;20005;-83
2023/05/28 10:50:18;;;;;;;5.50;2.65;;;17.00;75.70;;;;;;6156194;23;20001;-82
2023/05/28 10:53:09;;;;;;;7.53;2.97;;;17.00;75.80;;;;;;6130677;23;20005;-83
2023/05/28 10:55:52;;;;;;;5.97;2.75;;;16.90;75.90;;;;;;6156730;23;20314;-83
2023/05/28 10:58:28;;;;;;;7.93;2.97;;;16.90;76.10;;;;;;6155637;23;20056;-83
2023/05/28 11:01:04;;;;;;;5.43;2.78;;;16.90;76.20;;;;;;6156757;23;20142;-80
2023/05/28 11:03:44;;;;;;;6.60;3.00;;;16.90;76.30;;;;;;6130422;23;20044;-83
2023/05/28 11:06:11;;;;;;;7.57;2.75;;;16.90;76.40;;;;;;6130215;23;20009;-83
2023/05/28 11:08:40;;;;;;;6.20;2.88;;;16.80;76.40;;;;;;6130262;23;20005;-81
2023/05/28 11:11:05;;;;;;;6.07;3.08;;;16.90;76.50;;;;;;6129790;23;20010;-83
2023/05/28 11:13:32;;;;;;;6.40;2.95;;;16.90;76.50;;;;;;6155954;23;20397;-81
2023/05/28 11:16:06;;;;;;;6.70;2.88;;;16.90;76.50;;;;;;6129602;23;20084;-83
2023/05/28 11:18:32;;;;;;;6.53;3.00;;;16.90;76.50;;;;;;6129260;23;20429;-83
2023/05/28 11:21:11;;;;;;;6.38;2.85;;;16.80;76.50;;;;;;6155910;23;20084;-81
2023/05/28 11:23:37;;;;;;;7.88;3.20;;;16.90;76.60;;;;;;6129823;23;20068;-81
2023/05/28 11:26:04;;;;;;;8.35;3.75;;;16.80;76.60;;;;;;6155875;23;20421;-82
2023/05/28 11:28:30;;;;;;;7.70;3.30;;;16.80;76.50;;;;;;6130665;23;20006;-84
2023/05/28 11:30:58;;;;;;;6.78;3.10;;;16.80;76.50;;;;;;6131427;23;20052;-82
2023/05/28 11:33:27;;;;;;;6.47;2.92;;;16.90;76.60;;;;;;6131070;23;20040;-81
2023/05/28 11:36:02;;;;;;;6.60;3.33;;;16.90;76.70;;;;;;6131082;23;20032;-83
2023/05/28 11:38:28;;;;;;;7.57;3.15;;;16.90;76.60;;;;;;6131580;23;20002;-79
2023/05/28 11:41:02;;;;;;;7.43;3.05;;;16.90;76.70;;;;;;6132005;23;20085;-84
2023/05/28 11:43:28;;;;;;;7.57;3.08;;;16.90;76.70;;;;;;6131836;23;20383;-82
2023/05/28 11:45:59;;;;;;;6.55;3.10;;;16.80;76.70;;;;;;6131596;23;20088;-80
2023/05/28 11:48:26;;;;;;;8.05;3.20;;;16.80;76.70;;;;;;6131133;23;20471;-81
2023/05/28 11:51:00;;;;;;;6.50;3.00;;;16.80;76.70;;;;;;6157415;23;19997;-83
2023/05/28 11:53:40;;;;;;;5.57;3.15;;;16.80;76.70;;;;;;6131278;23;20009;-83
2023/05/28 11:56:08;;;;;;;7.13;3.20;;;16.80;76.80;;;;;;6130691;23;20376;-83
2023/05/28 11:58:37;;;;;;;6.18;2.80;;;16.80;76.80;;;;;;6130841;23;20013;-82
2023/05/28 12:01:03;;;;;;;7.43;3.08;;;16.80;76.80;;;;;;6131095;23;20476;-80
2023/05/28 12:03:29;;;;;;;6.25;2.95;;;16.80;76.80;;;;;;6131007;23;20345;-82
2023/05/28 12:05:54;;;;;;;6.72;2.97;;;16.80;76.90;;;;;;6130888;23;20012;-81
2023/05/28 12:08:20;;;;;;;6.53;3.05;;;16.80;76.90;;;;;;6130857;23;20009;-83
2023/05/28 12:10:46;;;;;;;7.85;3.33;;;16.80;76.80;;;;;;6157414;23;20002;-83
2023/05/28 12:13:15;;;;;;;5.85;2.80;;;16.80;76.80;;;;;;6130057;23;20064;-80
2023/05/28 12:15:40;;;;;;;7.00;2.90;;;16.80;76.70;;;;;;6157067;23;20001;-82
2023/05/28 12:18:06;;;;;;;5.35;2.85;;;16.90;76.70;;;;;;6130662;23;20404;-81
2023/05/28 12:20:36;;;;;;;7.45;3.13;;;16.90;76.60;;;;;;6156679;23;20006;-83
2023/05/28 12:23:09;;;;;;;6.40;3.10;;;16.90;76.60;;;;;;6130698;23;20041;-83
2023/05/28 12:25:48;;;;;;;6.38;2.80;;;16.90;76.60;;;;;;6156923;23;20068;-82
2023/05/28 12:28:24;;;;;;;6.07;2.70;;;16.90;76.60;;;;;;6130269;23;20452;-82
2023/05/28 12:30:52;;;;;;;7.22;3.30;;;16.90;76.60;;;;;;6131014;23;20033;-84
2023/05/28 12:33:19;;;;;;;7.07;3.13;;;16.90;76.60;;;;;;6130363;23;20009;-82
2023/05/28 12:35:45;;;;;;;6.65;3.10;;;16.90;76.60;;;;;;6130288;23;20428;-80
2023/05/28 12:38:11;;;;;;;6.03;3.00;;;16.90;76.60;;;;;;6130099;23;20080;-83
2023/05/28 12:40:37;;;;;;;6.47;2.67;;;16.80;76.60;;;;;;6130272;23;20013;-81